sensor_id;sensor_type;location;lat;lon;timestamp;pressure;altitude;pressure_sealevel;temperature;humidity
76046;BME280;64741;41.730;44.788;2023-09-07T00:01:12;988.5;;;29.6;42.9
76046;BME280;64741;41.730;44.788;2023-09-07T00:06:18;988.5;;;29.6;42.7
76046;BME280;64741;41.730;44.788;2023-09-07T00:10:50;988.5;;;29.6;42.6
76046;BME280;64741;41.730;44.788;2023-09-07T00:16:06;988.5;;;29.6;42.5
76046;BME280;64741;41.730;44.788;2023-09-07T00:21:16;988.6;;;29.6;42.4
76046;BME280;64741;41.730;44.788;2023-09-07T00:26:12;988.5;;;29.6;42.3
76046;BME280;64741;41.730;44.788;2023-09-07T00:31:18;988.5;;;29.6;42.3
76046;BME280;64741;41.730;44.788;2023-09-07T00:36:14;988.5;;;29.6;42.4
76046;BME280;64741;41.730;44.788;2023-09-07T00:41:18;988.6;;;29.6;42.4
76046;BME280;64741;41.730;44.788;2023-09-07T00:46:12;988.5;;;29.6;42.4
76046;BME280;64741;41.730;44.788;2023-09-07T00:51:12;988.5;;;29.6;42.3
76046;BME280;64741;41.730;44.788;2023-09-07T00:56:18;988.5;;;29.5;42.3
76046;BME280;64741;41.730;44.788;2023-09-07T01:01:14;988.5;;;29.6;42.4
76046;BME280;64741;41.730;44.788;2023-09-07T01:06:20;988.6;;;29.7;42.3
76046;BME280;64741;41.730;44.788;2023-09-07T01:11:17;988.5;;;29.7;42.2
76046;BME280;64741;41.730;44.788;2023-09-07T01:16:13;988.6;;;29.8;42.2
76046;BME280;64741;41.730;44.788;2023-09-07T01:21:18;988.5;;;29.9;42.1
76046;BME280;64741;41.730;44.788;2023-09-07T01:26:14;988.5;;;29.9;41.9
76046;BME280;64741;41.730;44.788;2023-09-07T01:31:18;988.6;;;30;41.8
76046;BME280;64741;41.730;44.788;2023-09-07T01:36:16;988.6;;;30;41.7
76046;BME280;64741;41.730;44.788;2023-09-07T01:41:12;988.5;;;30.1;41.5
76046;BME280;64741;41.730;44.788;2023-09-07T01:46:18;988.5;;;30.1;41.5
76046;BME280;64741;41.730;44.788;2023-09-07T01:51:12;988.5;;;30.1;41.5
76046;BME280;64741;41.730;44.788;2023-09-07T01:56:18;988.5;;;30.1;41.3
76046;BME280;64741;41.730;44.788;2023-09-07T02:01:20;988.6;;;30.1;41
76046;BME280;64741;41.730;44.788;2023-09-07T02:05:58;988.6;;;30.1;40.9
76046;BME280;64741;41.730;44.788;2023-09-07T02:10:52;988.5;;;30.2;40.7
76046;BME280;64741;41.730;44.788;2023-09-07T02:16:14;988.5;;;30.2;40.6
76046;BME280;64741;41.730;44.788;2023-09-07T02:21:18;988.6;;;30.2;40.6
76046;BME280;64741;41.730;44.788;2023-09-07T02:26:16;988.6;;;30.2;40.7
76046;BME280;64741;41.730;44.788;2023-09-07T02:30:36;988.7;;;30.2;40.6
76046;BME280;64741;41.730;44.788;2023-09-07T02:36:18;988.7;;;30.2;40.6
76046;BME280;64741;41.730;44.788;2023-09-07T02:41:14;988.8;;;30.2;40.6
76046;BME280;64741;41.730;44.788;2023-09-07T02:46:18;988.8;;;30.2;40.7
76046;BME280;64741;41.730;44.788;2023-09-07T02:51:16;988.8;;;30.2;40.7
76046;BME280;64741;41.730;44.788;2023-09-07T02:55:58;988.9;;;30.2;40.8
76046;BME280;64741;41.730;44.788;2023-09-07T03:01:18;989;;;30.2;40.9
76046;BME280;64741;41.730;44.788;2023-09-07T03:06:14;989;;;30.3;41
76046;BME280;64741;41.730;44.788;2023-09-07T03:11:18;989;;;30.3;41
76046;BME280;64741;41.730;44.788;2023-09-07T03:16:16;989;;;30.3;41
76046;BME280;64741;41.730;44.788;2023-09-07T03:21:12;989.1;;;30.3;41.1
76046;BME280;64741;41.730;44.788;2023-09-07T03:26:18;989.1;;;30.3;41.1
76046;BME280;64741;41.730;44.788;2023-09-07T03:31:14;989.2;;;30.3;41.1
76046;BME280;64741;41.730;44.788;2023-09-07T03:36:18;989.2;;;30.3;41.2
76046;BME280;64741;41.730;44.788;2023-09-07T03:41:14;989.2;;;30.3;41.3
76046;BME280;64741;41.730;44.788;2023-09-07T03:46:10;989.3;;;30.3;41.3
76046;BME280;64741;41.730;44.788;2023-09-07T03:51:16;989.2;;;30.3;41.4
76046;BME280;64741;41.730;44.788;2023-09-07T03:56:14;989.2;;;30.3;41.4
76046;BME280;64741;41.730;44.788;2023-09-07T04:01:16;989.2;;;30.3;41.5
76046;BME280;64741;41.730;44.788;2023-09-07T04:05:54;989.1;;;30.3;41.5
76046;BME280;64741;41.730;44.788;2023-09-07T04:11:12;989.2;;;30.3;41.5
76046;BME280;64741;41.730;44.788;2023-09-07T04:16:18;989.2;;;30.3;41.4
76046;BME280;64741;41.730;44.788;2023-09-07T04:21:03;989.2;;;30.3;41.3
76046;BME280;64741;41.730;44.788;2023-09-07T04:26:18;989.2;;;30.3;41.3
76046;BME280;64741;41.730;44.788;2023-09-07T04:31:14;989.2;;;30.3;41.3
76046;BME280;64741;41.730;44.788;2023-09-07T04:36:11;989.3;;;30.3;41.3
76046;BME280;64741;41.730;44.788;2023-09-07T04:41:18;989.3;;;30.3;41.3
76046;BME280;64741;41.730;44.788;2023-09-07T04:46:12;989.3;;;30.3;41.3
76046;BME280;64741;41.730;44.788;2023-09-07T04:51:18;989.4;;;30.3;41.4
76046;BME280;64741;41.730;44.788;2023-09-07T04:56:14;989.4;;;30.3;41.4
76046;BME280;64741;41.730;44.788;2023-09-07T05:01:11;989.4;;;30.3;41.4
76046;BME280;64741;41.730;44.788;2023-09-07T05:06:12;989.4;;;30.4;41.4
76046;BME280;64741;41.730;44.788;2023-09-07T05:11:18;989.4;;;30.4;41.5
76046;BME280;64741;41.730;44.788;2023-09-07T05:16:00;989.4;;;30.4;41.6
76046;BME280;64741;41.730;44.788;2023-09-07T05:20:52;989.3;;;30.4;41.6
76046;BME280;64741;41.730;44.788;2023-09-07T05:26:14;989.4;;;30.4;41.6
76046;BME280;64741;41.730;44.788;2023-09-07T05:30:48;989.4;;;30.4;41.5
76046;BME280;64741;41.730;44.788;2023-09-07T05:36:18;989.4;;;30.4;41.4
76046;BME280;64741;41.730;44.788;2023-09-07T05:41:14;989.3;;;30.4;41.5
76046;BME280;64741;41.730;44.788;2023-09-07T05:45:58;989.3;;;30.4;41.4
76046;BME280;64741;41.730;44.788;2023-09-07T05:51:14;989.3;;;30.4;41.4
76046;BME280;64741;41.730;44.788;2023-09-07T05:56:12;989.3;;;30.4;41.3
76046;BME280;64741;41.730;44.788;2023-09-07T06:01:16;989.2;;;30.4;41.3
76046;BME280;64741;41.730;44.788;2023-09-07T06:06:14;989.3;;;30.4;41.4
76046;BME280;64741;41.730;44.788;2023-09-07T06:11:10;989.2;;;30.4;41.4
76046;BME280;64741;41.730;44.788;2023-09-07T06:16:14;989.2;;;30.4;40.3
76046;BME280;64741;41.730;44.788;2023-09-07T06:21:12;989.2;;;30.3;40.2
76046;BME280;64741;41.730;44.788;2023-09-07T06:26:18;989.2;;;30.2;40.3
76046;BME280;64741;41.730;44.788;2023-09-07T06:31:14;989.2;;;30.2;40.2
76046;BME280;64741;41.730;44.788;2023-09-07T06:36:10;989.1;;;30.1;40.2
76046;BME280;64741;41.730;44.788;2023-09-07T06:41:14;989.1;;;30.1;40.2
76046;BME280;64741;41.730;44.788;2023-09-07T06:46:12;989.1;;;30.1;40.2
76046;BME280;64741;41.730;44.788;2023-09-07T06:51:18;989.1;;;30.1;40.1
76046;BME280;64741;41.730;44.788;2023-09-07T06:56:12;989;;;30.1;40.1
76046;BME280;64741;41.730;44.788;2023-09-07T07:01:10;989;;;30.1;40
76046;BME280;64741;41.730;44.788;2023-09-07T07:06:12;988.9;;;30.1;39.9
76046;BME280;64741;41.730;44.788;2023-09-07T07:11:10;988.9;;;30.1;39.9
76046;BME280;64741;41.730;44.788;2023-09-07T07:16:18;988.8;;;30.2;40
76046;BME280;64741;41.730;44.788;2023-09-07T07:21:14;988.8;;;30.2;39.8
76046;BME280;64741;41.730;44.788;2023-09-07T07:26:10;988.7;;;30.2;39.4
76046;BME280;64741;41.730;44.788;2023-09-07T07:31:14;988.6;;;30.3;39.4
76046;BME280;64741;41.730;44.788;2023-09-07T07:36:12;988.6;;;30.3;39.4
76046;BME280;64741;41.730;44.788;2023-09-07T07:41:18;988.5;;;30.3;39.2
76046;BME280;64741;41.730;44.788;2023-09-07T07:46:15;988.5;;;30.3;38.8
76046;BME280;64741;41.730;44.788;2023-09-07T07:51:10;988.5;;;30.3;38.8
76046;BME280;64741;41.730;44.788;2023-09-07T07:56:15;988.4;;;30.3;38.5
76046;BME280;64741;41.730;44.788;2023-09-07T08:01:13;988.4;;;30.4;38.2
76046;BME280;64741;41.730;44.788;2023-09-07T08:06:19;988.3;;;30.4;38.8
76046;BME280;64741;41.730;44.788;2023-09-07T08:11:14;988.3;;;30.4;39.3
76046;BME280;64741;41.730;44.788;2023-09-07T08:16:08;988.3;;;30.5;39.8
76046;BME280;64741;41.730;44.788;2023-09-07T08:21:15;988.2;;;30.5;39.3
76046;BME280;64741;41.730;44.788;2023-09-07T08:26:13;988.2;;;30.6;39.4
76046;BME280;64741;41.730;44.788;2023-09-07T08:31:18;988.1;;;30.6;39.8
76046;BME280;64741;41.730;44.788;2023-09-07T08:36:14;988.1;;;30.6;40.4
76046;BME280;64741;41.730;44.788;2023-09-07T08:41:00;988;;;30.6;38
76046;BME280;64741;41.730;44.788;2023-09-07T08:46:04;987.9;;;30.6;37.9
76046;BME280;64741;41.730;44.788;2023-09-07T08:51:13;987.9;;;30.6;37.4
76046;BME280;64741;41.730;44.788;2023-09-07T08:56:19;987.8;;;30.6;37.2
76046;BME280;64741;41.730;44.788;2023-09-07T09:01:15;987.8;;;30.6;37.9
76046;BME280;64741;41.730;44.788;2023-09-07T09:06:09;987.7;;;30.6;37.5
76046;BME280;64741;41.730;44.788;2023-09-07T09:11:17;987.7;;;30.6;37.1
76046;BME280;64741;41.730;44.788;2023-09-07T09:16:11;987.7;;;30.6;37.1
76046;BME280;64741;41.730;44.788;2023-09-07T09:21:15;987.6;;;30.6;37
76046;BME280;64741;41.730;44.788;2023-09-07T09:26:13;987.5;;;30.6;36.9
76046;BME280;64741;41.730;44.788;2023-09-07T09:31:07;987.4;;;30.6;36.9
76046;BME280;64741;41.730;44.788;2023-09-07T09:36:13;987.4;;;30.6;37
76046;BME280;64741;41.730;44.788;2023-09-07T09:41:09;987.4;;;30.7;37.1
76046;BME280;64741;41.730;44.788;2023-09-07T09:46:15;987.4;;;30.7;37.3
76046;BME280;64741;41.730;44.788;2023-09-07T09:51:13;987.4;;;30.7;37.4
76046;BME280;64741;41.730;44.788;2023-09-07T09:56:07;987.3;;;30.8;37.1
76046;BME280;64741;41.730;44.788;2023-09-07T10:01:13;987.3;;;30.8;36.6
76046;BME280;64741;41.730;44.788;2023-09-07T10:06:09;987.3;;;30.8;36.8
76046;BME280;64741;41.730;44.788;2023-09-07T10:11:17;987.2;;;30.8;37.2
76046;BME280;64741;41.730;44.788;2023-09-07T10:16:15;987.2;;;30.9;37.2
76046;BME280;64741;41.730;44.788;2023-09-07T10:21:09;987.2;;;30.9;36.9
76046;BME280;64741;41.730;44.788;2023-09-07T10:26:02;987.2;;;30.9;36.8
76046;BME280;64741;41.730;44.788;2023-09-07T10:30:35;987.2;;;30.9;36.7
76046;BME280;64741;41.730;44.788;2023-09-07T10:36:22;987;;;31;36.4
76046;BME280;64741;41.730;44.788;2023-09-07T10:41:13;986.9;;;31;37.7
76046;BME280;64741;41.730;44.788;2023-09-07T10:46:07;986.8;;;31;38.7
76046;BME280;64741;41.730;44.788;2023-09-07T10:51:13;986.8;;;31.1;39.3
76046;BME280;64741;41.730;44.788;2023-09-07T10:56:11;986.8;;;31.1;39.3
76046;BME280;64741;41.730;44.788;2023-09-07T11:01:17;986.8;;;31.1;40.4
76046;BME280;64741;41.730;44.788;2023-09-07T11:06:15;986.7;;;31.1;39.6
76046;BME280;64741;41.730;44.788;2023-09-07T11:11:09;986.6;;;31.2;40.5
76046;BME280;64741;41.730;44.788;2023-09-07T11:16:15;986.7;;;31.2;41.2
76046;BME280;64741;41.730;44.788;2023-09-07T11:21:11;986.6;;;31.2;42.3
76046;BME280;64741;41.730;44.788;2023-09-07T11:26:17;986.6;;;31.3;42.3
76046;BME280;64741;41.730;44.788;2023-09-07T11:31:13;986.5;;;31.3;42.1
76046;BME280;64741;41.730;44.788;2023-09-07T11:36:09;986.4;;;31.3;43
76046;BME280;64741;41.730;44.788;2023-09-07T11:41:15;986.4;;;31.4;43.4
76046;BME280;64741;41.730;44.788;2023-09-07T11:46:11;986.4;;;31.4;43.9
76046;BME280;64741;41.730;44.788;2023-09-07T11:51:17;986.4;;;31.4;44.4
76046;BME280;64741;41.730;44.788;2023-09-07T11:56:15;986.4;;;31.4;44.9
76046;BME280;64741;41.730;44.788;2023-09-07T12:01:09;986.4;;;31.5;44.3
76046;BME280;64741;41.730;44.788;2023-09-07T12:06:01;986.3;;;31.5;43.5
76046;BME280;64741;41.730;44.788;2023-09-07T12:10:47;986.3;;;31.5;42.7
76046;BME280;64741;41.730;44.788;2023-09-07T12:16:01;986.2;;;31.5;42.4
76046;BME280;64741;41.730;44.788;2023-09-07T12:21:15;986.2;;;31.5;42.4
76046;BME280;64741;41.730;44.788;2023-09-07T12:26:07;986.2;;;31.6;41.5
76046;BME280;64741;41.730;44.788;2023-09-07T12:31:15;986.3;;;31.6;41
76046;BME280;64741;41.730;44.788;2023-09-07T12:36:11;986.3;;;31.6;40.3
76046;BME280;64741;41.730;44.788;2023-09-07T12:41:17;986.3;;;31.6;39.9
76046;BME280;64741;41.730;44.788;2023-09-07T12:46:13;986.2;;;31.6;40.1
76046;BME280;64741;41.730;44.788;2023-09-07T12:51:07;986.2;;;31.6;40.1
76046;BME280;64741;41.730;44.788;2023-09-07T12:56:15;986.3;;;31.6;40.2
76046;BME280;64741;41.730;44.788;2023-09-07T13:01:11;986.4;;;31.6;38.2
76046;BME280;64741;41.730;44.788;2023-09-07T13:06:17;986.4;;;31.6;35.9
76046;BME280;64741;41.730;44.788;2023-09-07T13:11:15;986.4;;;31.6;35.5
76046;BME280;64741;41.730;44.788;2023-09-07T13:16:09;986.4;;;31.6;35.4
76046;BME280;64741;41.730;44.788;2023-09-07T13:21:17;986.4;;;31.6;35.6
76046;BME280;64741;41.730;44.788;2023-09-07T13:26:11;986.5;;;31.6;34.7
76046;BME280;64741;41.730;44.788;2023-09-07T13:31:11;986.5;;;31.6;34.3
76046;BME280;64741;41.730;44.788;2023-09-07T13:36:15;986.5;;;31.6;34.4
76046;BME280;64741;41.730;44.788;2023-09-07T13:41:09;986.5;;;31.6;34.9
76046;BME280;64741;41.730;44.788;2023-09-07T13:46:17;986.4;;;31.5;34.5
76046;BME280;64741;41.730;44.788;2023-09-07T13:51:11;986.3;;;31.5;34.4
76046;BME280;64741;41.730;44.788;2023-09-07T13:56:07;986.3;;;31.5;34.5
76046;BME280;64741;41.730;44.788;2023-09-07T14:01:15;986.3;;;31.5;34.5
76046;BME280;64741;41.730;44.788;2023-09-07T14:06:09;986.4;;;31.4;34.5
76046;BME280;64741;41.730;44.788;2023-09-07T14:11:17;986.4;;;31.4;34.7
76046;BME280;64741;41.730;44.788;2023-09-07T14:16:11;986.4;;;31.4;34.7
76046;BME280;64741;41.730;44.788;2023-09-07T14:21:17;986.5;;;31.4;34.6
76046;BME280;64741;41.730;44.788;2023-09-07T14:26:15;986.5;;;31.4;34.8
76046;BME280;64741;41.730;44.788;2023-09-07T14:31:09;986.4;;;31.4;34.9
76046;BME280;64741;41.730;44.788;2023-09-07T14:36:17;986.5;;;31.3;34.8
76046;BME280;64741;41.730;44.788;2023-09-07T14:41:11;986.6;;;31.3;34.9
76046;BME280;64741;41.730;44.788;2023-09-07T14:46:17;986.7;;;31.3;35
76046;BME280;64741;41.730;44.788;2023-09-07T14:51:15;986.7;;;31.3;35
76046;BME280;64741;41.730;44.788;2023-09-07T14:55:35;986.7;;;31.3;35.1
76046;BME280;64741;41.730;44.788;2023-09-07T15:01:17;986.7;;;31.3;35.1
76046;BME280;64741;41.730;44.788;2023-09-07T15:05:49;986.7;;;31.3;35.2
76046;BME280;64741;41.730;44.788;2023-09-07T15:11:03;986.7;;;31.3;35.3
76046;BME280;64741;41.730;44.788;2023-09-07T15:16:15;986.9;;;31.2;35.5
76046;BME280;64741;41.730;44.788;2023-09-07T15:21:09;987.1;;;31.2;35.6
76046;BME280;64741;41.730;44.788;2023-09-07T15:26:07;987.1;;;31.2;36.1
76046;BME280;64741;41.730;44.788;2023-09-07T15:31:11;987.2;;;31.2;36.1
76046;BME280;64741;41.730;44.788;2023-09-07T15:36:17;987.2;;;31.2;35.6
76046;BME280;64741;41.730;44.788;2023-09-07T15:41:16;987.2;;;31.2;35.7
76046;BME280;64741;41.730;44.788;2023-09-07T15:46:09;987.2;;;31.1;35.7
76046;BME280;64741;41.730;44.788;2023-09-07T15:51:03;987.2;;;31.1;35.9
76046;BME280;64741;41.730;44.788;2023-09-07T15:56:11;987.2;;;31.1;35.8
76046;BME280;64741;41.730;44.788;2023-09-07T16:01:05;987.3;;;31.1;35.9
76046;BME280;64741;41.730;44.788;2023-09-07T16:06:01;987.4;;;31;36.3
76046;BME280;64741;41.730;44.788;2023-09-07T16:11:11;987.5;;;31;36.6
76046;BME280;64741;41.730;44.788;2023-09-07T16:15:59;987.5;;;30.9;36.9
76046;BME280;64741;41.730;44.788;2023-09-07T16:21:13;987.5;;;30.9;37.1
76046;BME280;64741;41.730;44.788;2023-09-07T16:26:19;987.5;;;30.9;37.3
76046;BME280;64741;41.730;44.788;2023-09-07T16:31:15;987.5;;;30.9;37.5
76046;BME280;64741;41.730;44.788;2023-09-07T16:36:11;987.6;;;30.8;37.7
76046;BME280;64741;41.730;44.788;2023-09-07T16:41:19;987.7;;;30.8;37.8
76046;BME280;64741;41.730;44.788;2023-09-07T16:46:13;987.7;;;30.8;38
76046;BME280;64741;41.730;44.788;2023-09-07T16:51:19;987.8;;;30.9;38.1
76046;BME280;64741;41.730;44.788;2023-09-07T16:56:15;987.8;;;30.9;38
76046;BME280;64741;41.730;44.788;2023-09-07T17:01:11;987.9;;;30.8;38.1
76046;BME280;64741;41.730;44.788;2023-09-07T17:06:19;988;;;30.8;38.3
76046;BME280;64741;41.730;44.788;2023-09-07T17:11:13;988;;;30.8;38.3
76046;BME280;64741;41.730;44.788;2023-09-07T17:16:19;988.1;;;30.8;38.4
76046;BME280;64741;41.730;44.788;2023-09-07T17:21:15;988.2;;;30.8;38.5
76046;BME280;64741;41.730;44.788;2023-09-07T17:26:11;988.3;;;30.8;38.6
76046;BME280;64741;41.730;44.788;2023-09-07T17:31:12;988.3;;;30.8;38.6
76046;BME280;64741;41.730;44.788;2023-09-07T17:36:13;988.4;;;30.8;38.3
76046;BME280;64741;41.730;44.788;2023-09-07T17:41:19;988.6;;;30.7;38.5
76046;BME280;64741;41.730;44.788;2023-09-07T17:45:39;988.7;;;30.6;38.8
76046;BME280;64741;41.730;44.788;2023-09-07T17:51:11;988.8;;;30.6;38.9
76046;BME280;64741;41.730;44.788;2023-09-07T17:56:21;988.8;;;30.5;39.1
76046;BME280;64741;41.730;44.788;2023-09-07T18:01:16;988.8;;;30.5;39.1
76046;BME280;64741;41.730;44.788;2023-09-07T18:06:22;988.9;;;30.5;39.1
76046;BME280;64741;41.730;44.788;2023-09-07T18:11:15;988.9;;;30.5;39.2
76046;BME280;64741;41.730;44.788;2023-09-07T18:15:43;989;;;30.5;39
76046;BME280;64741;41.730;44.788;2023-09-07T18:21:19;989;;;30.5;39.1
76046;BME280;64741;41.730;44.788;2023-09-07T18:26:15;989;;;30.5;39.1
76046;BME280;64741;41.730;44.788;2023-09-07T18:31:21;989.1;;;30.5;39.1
76046;BME280;64741;41.730;44.788;2023-09-07T18:36:15;989;;;30.5;39.1
76046;BME280;64741;41.730;44.788;2023-09-07T18:41:13;989.1;;;30.5;39.1
76046;BME280;64741;41.730;44.788;2023-09-07T18:46:07;989.1;;;30.5;39.2
76046;BME280;64741;41.730;44.788;2023-09-07T18:51:15;989.2;;;30.5;39.8
76046;BME280;64741;41.730;44.788;2023-09-07T18:56:21;989.2;;;30.5;40.4
76046;BME280;64741;41.730;44.788;2023-09-07T19:01:15;989.3;;;30.4;40.8
76046;BME280;64741;41.730;44.788;2023-09-07T19:06:13;989.3;;;30.4;40.6
76046;BME280;64741;41.730;44.788;2023-09-07T19:11:21;989.1;;;30.4;40.6
76046;BME280;64741;41.730;44.788;2023-09-07T19:16:15;989.2;;;30.3;40.7
76046;BME280;64741;41.730;44.788;2023-09-07T19:21:07;989.3;;;30.3;41
76046;BME280;64741;41.730;44.788;2023-09-07T19:26:31;989.3;;;30.2;41.2
76046;BME280;64741;41.730;44.788;2023-09-07T19:31:11;989.4;;;30.2;41.4
76046;BME280;64741;41.730;44.788;2023-09-07T19:36:21;989.3;;;30.2;41.2
76046;BME280;64741;41.730;44.788;2023-09-07T19:41:07;989.3;;;30.2;41.1
76046;BME280;64741;41.730;44.788;2023-09-07T19:46:21;989.3;;;30.2;41.3
76046;BME280;64741;41.730;44.788;2023-09-07T19:51:15;989.3;;;30.2;41.1
76046;BME280;64741;41.730;44.788;2023-09-07T19:56:14;989.2;;;30.3;41.3
76046;BME280;64741;41.730;44.788;2023-09-07T20:01:21;989.1;;;30.2;41.1
76046;BME280;64741;41.730;44.788;2023-09-07T20:06:16;989.1;;;30.2;41
76046;BME280;64741;41.730;44.788;2023-09-07T20:11:19;989.1;;;30.2;41
76046;BME280;64741;41.730;44.788;2023-09-07T20:16:17;989.2;;;30.2;41
76046;BME280;64741;41.730;44.788;2023-09-07T20:21:13;989.1;;;30.2;40.8
76046;BME280;64741;41.730;44.788;2023-09-07T20:25:35;989.1;;;30.2;40.7
76046;BME280;64741;41.730;44.788;2023-09-07T20:31:15;989.1;;;30.2;40.7
76046;BME280;64741;41.730;44.788;2023-09-07T20:36:21;989.1;;;30.2;41
76046;BME280;64741;41.730;44.788;2023-09-07T20:41:15;989.1;;;30.1;41.5
76046;BME280;64741;41.730;44.788;2023-09-07T20:46:11;989;;;30.1;41.9
76046;BME280;64741;41.730;44.788;2023-09-07T20:51:21;989;;;30.1;41.9
76046;BME280;64741;41.730;44.788;2023-09-07T20:56:15;989.1;;;30.1;41.7
76046;BME280;64741;41.730;44.788;2023-09-07T21:01:21;989.1;;;30.1;41.1
76046;BME280;64741;41.730;44.788;2023-09-07T21:05:35;989.1;;;30.1;41
76046;BME280;64741;41.730;44.788;2023-09-07T21:11:13;989.1;;;30.1;41
76046;BME280;64741;41.730;44.788;2023-09-07T21:16:05;989.1;;;30.1;40.9
76046;BME280;64741;41.730;44.788;2023-09-07T21:21:15;988.9;;;30.1;41
76046;BME280;64741;41.730;44.788;2023-09-07T21:26:21;989;;;30;41.1
76046;BME280;64741;41.730;44.788;2023-09-07T21:31:15;988.9;;;30.1;41.2
76046;BME280;64741;41.730;44.788;2023-09-07T21:36:15;988.8;;;30.1;41
76046;BME280;64741;41.730;44.788;2023-09-07T21:41:21;988.8;;;30.2;41
76046;BME280;64741;41.730;44.788;2023-09-07T21:45:59;988.7;;;30.2;40.9
76046;BME280;64741;41.730;44.788;2023-09-07T21:51:17;988.8;;;30.2;40.9
76046;BME280;64741;41.730;44.788;2023-09-07T21:56:15;988.8;;;30.3;40.9
76046;BME280;64741;41.730;44.788;2023-09-07T22:01:15;988.7;;;30.3;40.8
76046;BME280;64741;41.730;44.788;2023-09-07T22:06:21;988.7;;;30.3;40.8
76046;BME280;64741;41.730;44.788;2023-09-07T22:11:15;988.7;;;30.3;41.2
76046;BME280;64741;41.730;44.788;2023-09-07T22:16:11;988.7;;;30.3;42.8
76046;BME280;64741;41.730;44.788;2023-09-07T22:21:07;988.7;;;30.4;42.3
76046;BME280;64741;41.730;44.788;2023-09-07T22:26:13;988.7;;;30.4;43.4
76046;BME280;64741;41.730;44.788;2023-09-07T22:31:11;988.8;;;30.4;44.2
76046;BME280;64741;41.730;44.788;2023-09-07T22:36:15;988.8;;;30.4;44.4
76046;BME280;64741;41.730;44.788;2023-09-07T22:41:15;988.8;;;30.4;44.7
76046;BME280;64741;41.730;44.788;2023-09-07T22:46:15;988.8;;;30.4;45
76046;BME280;64741;41.730;44.788;2023-09-07T22:51:15;988.9;;;30.4;44.7
76046;BME280;64741;41.730;44.788;2023-09-07T22:56:19;988.9;;;30.4;45.3
76046;BME280;64741;41.730;44.788;2023-09-07T23:01:15;988.8;;;30.5;45.1
76046;BME280;64741;41.730;44.788;2023-09-07T23:06:13;988.8;;;30.4;45.4
76046;BME280;64741;41.730;44.788;2023-09-07T23:11:21;988.8;;;30.5;45
76046;BME280;64741;41.730;44.788;2023-09-07T23:15:59;988.9;;;30.5;45.2
76046;BME280;64741;41.730;44.788;2023-09-07T23:21:03;989;;;30.4;45.6
76046;BME280;64741;41.730;44.788;2023-09-07T23:26:15;988.9;;;30.3;45.8
76046;BME280;64741;41.730;44.788;2023-09-07T23:31:11;988.8;;;30.3;46
76046;BME280;64741;41.730;44.788;2023-09-07T23:36:15;988.7;;;30.3;46.2
76046;BME280;64741;41.730;44.788;2023-09-07T23:41:15;988.5;;;30.3;46.2
76046;BME280;64741;41.730;44.788;2023-09-07T23:46:21;988.4;;;30.3;46.2
76046;BME280;64741;41.730;44.788;2023-09-07T23:51:15;988.4;;;30.3;46.1
76046;BME280;64741;41.730;44.788;2023-09-07T23:56:13;988.5;;;30.3;46.1
